sensor_id;sensor_type;location;lat;lon;timestamp;P1;durP1;ratioP1;P2;durP2;ratioP2
36995;SDS011;22905;50.340;10.776;2023-02-28T00:04:49;10.32;;;4.13;;
36995;SDS011;22905;50.340;10.776;2023-02-28T00:09:53;5.85;;;4.00;;
36995;SDS011;22905;50.340;10.776;2023-02-28T00:14:53;5.90;;;4.40;;
36995;SDS011;22905;50.340;10.776;2023-02-28T00:19:53;6.80;;;4.35;;
36995;SDS011;22905;50.340;10.776;2023-02-28T00:24:54;7.55;;;3.92;;
36995;SDS011;22905;50.340;10.776;2023-02-28T00:29:54;6.75;;;4.70;;
36995;SDS011;22905;50.340;10.776;2023-02-28T00:34:54;7.80;;;4.25;;
36995;SDS011;22905;50.340;10.776;2023-02-28T00:39:55;7.45;;;4.15;;
36995;SDS011;22905;50.340;10.776;2023-02-28T00:44:55;14.90;;;5.00;;
36995;SDS011;22905;50.340;10.776;2023-02-28T00:49:55;8.13;;;4.20;;
36995;SDS011;22905;50.340;10.776;2023-02-28T00:54:56;6.43;;;3.17;;
36995;SDS011;22905;50.340;10.776;2023-02-28T00:59:56;10.00;;;3.60;;
36995;SDS011;22905;50.340;10.776;2023-02-28T01:04:56;3.78;;;3.05;;
36995;SDS011;22905;50.340;10.776;2023-02-28T01:09:57;4.10;;;2.80;;
36995;SDS011;22905;50.340;10.776;2023-02-28T01:14:57;13.13;;;5.68;;
36995;SDS011;22905;50.340;10.776;2023-02-28T01:19:57;7.13;;;3.10;;
36995;SDS011;22905;50.340;10.776;2023-02-28T01:24:58;3.85;;;2.90;;
36995;SDS011;22905;50.340;10.776;2023-02-28T01:29:58;5.07;;;2.97;;
36995;SDS011;22905;50.340;10.776;2023-02-28T01:34:58;4.20;;;3.10;;
36995;SDS011;22905;50.340;10.776;2023-02-28T01:39:59;10.60;;;3.78;;
36995;SDS011;22905;50.340;10.776;2023-02-28T01:45:04;5.80;;;2.92;;
36995;SDS011;22905;50.340;10.776;2023-02-28T01:50:16;5.22;;;2.97;;
36995;SDS011;22905;50.340;10.776;2023-02-28T01:55:19;6.80;;;5.00;;
36995;SDS011;22905;50.340;10.776;2023-02-28T02:00:21;5.15;;;3.05;;
36995;SDS011;22905;50.340;10.776;2023-02-28T02:05:25;3.33;;;2.47;;
36995;SDS011;22905;50.340;10.776;2023-02-28T02:10:36;3.38;;;3.08;;
36995;SDS011;22905;50.340;10.776;2023-02-28T02:26:44;5.15;;;2.80;;
36995;SDS011;22905;50.340;10.776;2023-02-28T02:32:09;5.10;;;3.13;;
36995;SDS011;22905;50.340;10.776;2023-02-28T02:37:32;3.78;;;2.75;;
36995;SDS011;22905;50.340;10.776;2023-02-28T02:48:09;5.90;;;3.00;;
36995;SDS011;22905;50.340;10.776;2023-02-28T02:53:13;4.25;;;3.47;;
36995;SDS011;22905;50.340;10.776;2023-02-28T02:58:16;6.00;;;2.97;;
36995;SDS011;22905;50.340;10.776;2023-02-28T03:03:17;4.70;;;3.27;;
36995;SDS011;22905;50.340;10.776;2023-02-28T03:08:20;5.95;;;3.15;;
36995;SDS011;22905;50.340;10.776;2023-02-28T03:24:24;7.18;;;4.47;;
36995;SDS011;22905;50.340;10.776;2023-02-28T03:29:35;5.55;;;3.83;;
36995;SDS011;22905;50.340;10.776;2023-02-28T03:34:38;4.38;;;3.60;;
36995;SDS011;22905;50.340;10.776;2023-02-28T03:39:42;7.68;;;4.03;;
36995;SDS011;22905;50.340;10.776;2023-02-28T03:49:50;5.90;;;3.47;;
36995;SDS011;22905;50.340;10.776;2023-02-28T03:54:54;5.20;;;3.15;;
36995;SDS011;22905;50.340;10.776;2023-02-28T03:59:56;5.35;;;3.65;;
36995;SDS011;22905;50.340;10.776;2023-02-28T04:04:59;5.55;;;4.25;;
36995;SDS011;22905;50.340;10.776;2023-02-28T04:10:00;6.15;;;4.13;;
36995;SDS011;22905;50.340;10.776;2023-02-28T04:15:00;7.83;;;3.67;;
36995;SDS011;22905;50.340;10.776;2023-02-28T04:20:01;6.50;;;3.50;;
36995;SDS011;22905;50.340;10.776;2023-02-28T04:25:01;6.85;;;3.90;;
36995;SDS011;22905;50.340;10.776;2023-02-28T04:30:02;9.60;;;4.20;;
36995;SDS011;22905;50.340;10.776;2023-02-28T04:35:02;7.22;;;4.35;;
36995;SDS011;22905;50.340;10.776;2023-02-28T04:40:03;7.40;;;4.32;;
36995;SDS011;22905;50.340;10.776;2023-02-28T04:45:04;9.98;;;5.43;;
36995;SDS011;22905;50.340;10.776;2023-02-28T04:50:05;8.20;;;4.30;;
36995;SDS011;22905;50.340;10.776;2023-02-28T04:55:05;7.68;;;4.75;;
36995;SDS011;22905;50.340;10.776;2023-02-28T05:00:06;8.27;;;5.25;;
36995;SDS011;22905;50.340;10.776;2023-02-28T05:05:11;7.60;;;4.40;;
36995;SDS011;22905;50.340;10.776;2023-02-28T05:10:17;8.85;;;4.30;;
36995;SDS011;22905;50.340;10.776;2023-02-28T05:15:18;7.55;;;5.22;;
36995;SDS011;22905;50.340;10.776;2023-02-28T05:20:18;8.80;;;5.50;;
36995;SDS011;22905;50.340;10.776;2023-02-28T05:25:20;7.63;;;5.45;;
36995;SDS011;22905;50.340;10.776;2023-02-28T05:30:21;8.77;;;5.47;;
36995;SDS011;22905;50.340;10.776;2023-02-28T05:35:22;8.82;;;5.35;;
36995;SDS011;22905;50.340;10.776;2023-02-28T05:40:23;8.93;;;5.15;;
36995;SDS011;22905;50.340;10.776;2023-02-28T05:45:23;12.98;;;6.65;;
36995;SDS011;22905;50.340;10.776;2023-02-28T05:50:23;10.38;;;6.18;;
36995;SDS011;22905;50.340;10.776;2023-02-28T05:55:24;14.52;;;6.40;;
36995;SDS011;22905;50.340;10.776;2023-02-28T06:00:24;14.37;;;5.47;;
36995;SDS011;22905;50.340;10.776;2023-02-28T06:05:24;9.47;;;5.43;;
36995;SDS011;22905;50.340;10.776;2023-02-28T06:10:25;11.75;;;6.82;;
36995;SDS011;22905;50.340;10.776;2023-02-28T06:15:25;12.83;;;5.67;;
36995;SDS011;22905;50.340;10.776;2023-02-28T06:20:26;10.18;;;6.25;;
36995;SDS011;22905;50.340;10.776;2023-02-28T06:25:29;10.98;;;7.25;;
36995;SDS011;22905;50.340;10.776;2023-02-28T06:30:29;22.23;;;6.70;;
36995;SDS011;22905;50.340;10.776;2023-02-28T06:35:33;18.00;;;7.43;;
36995;SDS011;22905;50.340;10.776;2023-02-28T06:40:35;15.88;;;7.07;;
36995;SDS011;22905;50.340;10.776;2023-02-28T06:45:35;15.27;;;7.55;;
36995;SDS011;22905;50.340;10.776;2023-02-28T06:50:36;13.27;;;7.43;;
36995;SDS011;22905;50.340;10.776;2023-02-28T06:55:37;15.48;;;6.35;;
36995;SDS011;22905;50.340;10.776;2023-02-28T07:00:38;15.90;;;8.27;;
36995;SDS011;22905;50.340;10.776;2023-02-28T07:05:39;13.65;;;7.10;;
36995;SDS011;22905;50.340;10.776;2023-02-28T07:10:39;15.65;;;7.22;;
36995;SDS011;22905;50.340;10.776;2023-02-28T07:15:40;13.85;;;6.90;;
36995;SDS011;22905;50.340;10.776;2023-02-28T07:20:40;13.60;;;7.25;;
36995;SDS011;22905;50.340;10.776;2023-02-28T07:25:41;11.35;;;7.20;;
36995;SDS011;22905;50.340;10.776;2023-02-28T07:30:41;11.52;;;5.85;;
36995;SDS011;22905;50.340;10.776;2023-02-28T07:35:41;14.93;;;5.85;;
36995;SDS011;22905;50.340;10.776;2023-02-28T07:40:42;10.67;;;5.50;;
36995;SDS011;22905;50.340;10.776;2023-02-28T07:45:42;11.60;;;6.20;;
36995;SDS011;22905;50.340;10.776;2023-02-28T07:50:42;16.70;;;7.20;;
36995;SDS011;22905;50.340;10.776;2023-02-28T07:55:43;10.73;;;6.10;;
36995;SDS011;22905;50.340;10.776;2023-02-28T08:00:43;11.70;;;5.87;;
36995;SDS011;22905;50.340;10.776;2023-02-28T08:05:43;12.60;;;5.78;;
36995;SDS011;22905;50.340;10.776;2023-02-28T08:10:43;14.20;;;6.43;;
36995;SDS011;22905;50.340;10.776;2023-02-28T08:15:44;15.57;;;6.93;;
36995;SDS011;22905;50.340;10.776;2023-02-28T08:20:45;12.68;;;7.07;;
36995;SDS011;22905;50.340;10.776;2023-02-28T08:25:52;14.13;;;6.40;;
36995;SDS011;22905;50.340;10.776;2023-02-28T08:30:53;13.82;;;7.50;;
36995;SDS011;22905;50.340;10.776;2023-02-28T08:35:55;13.95;;;6.93;;
36995;SDS011;22905;50.340;10.776;2023-02-28T08:40:59;15.18;;;6.85;;
36995;SDS011;22905;50.340;10.776;2023-02-28T08:46:00;17.98;;;7.53;;
36995;SDS011;22905;50.340;10.776;2023-02-28T08:51:02;9.23;;;5.45;;
36995;SDS011;22905;50.340;10.776;2023-02-28T08:56:05;14.88;;;5.97;;
36995;SDS011;22905;50.340;10.776;2023-02-28T09:01:18;10.88;;;5.78;;
36995;SDS011;22905;50.340;10.776;2023-02-28T09:06:20;10.77;;;5.33;;
36995;SDS011;22905;50.340;10.776;2023-02-28T09:11:21;16.77;;;7.82;;
36995;SDS011;22905;50.340;10.776;2023-02-28T09:16:21;14.85;;;6.15;;
36995;SDS011;22905;50.340;10.776;2023-02-28T09:21:22;14.15;;;5.47;;
36995;SDS011;22905;50.340;10.776;2023-02-28T09:26:24;20.08;;;4.97;;
36995;SDS011;22905;50.340;10.776;2023-02-28T09:31:26;8.30;;;4.78;;
36995;SDS011;22905;50.340;10.776;2023-02-28T09:36:27;9.60;;;5.15;;
36995;SDS011;22905;50.340;10.776;2023-02-28T09:41:32;9.27;;;4.93;;
36995;SDS011;22905;50.340;10.776;2023-02-28T09:46:40;10.93;;;5.30;;
36995;SDS011;22905;50.340;10.776;2023-02-28T09:51:50;5.80;;;4.47;;
36995;SDS011;22905;50.340;10.776;2023-02-28T10:01:59;14.35;;;4.70;;
36995;SDS011;22905;50.340;10.776;2023-02-28T10:07:22;8.50;;;4.65;;
36995;SDS011;22905;50.340;10.776;2023-02-28T10:12:43;7.18;;;4.85;;
36995;SDS011;22905;50.340;10.776;2023-02-28T10:17:45;13.13;;;6.00;;
36995;SDS011;22905;50.340;10.776;2023-02-28T10:22:59;8.25;;;4.10;;
36995;SDS011;22905;50.340;10.776;2023-02-28T10:33:11;9.57;;;4.83;;
36995;SDS011;22905;50.340;10.776;2023-02-28T10:38:20;7.95;;;4.18;;
36995;SDS011;22905;50.340;10.776;2023-02-28T10:43:23;10.02;;;4.65;;
36995;SDS011;22905;50.340;10.776;2023-02-28T10:48:26;12.18;;;4.75;;
36995;SDS011;22905;50.340;10.776;2023-02-28T10:53:34;8.55;;;4.45;;
36995;SDS011;22905;50.340;10.776;2023-02-28T11:09:36;14.05;;;5.93;;
36995;SDS011;22905;50.340;10.776;2023-02-28T11:14:40;16.20;;;6.32;;
36995;SDS011;22905;50.340;10.776;2023-02-28T11:19:49;21.75;;;8.82;;
36995;SDS011;22905;50.340;10.776;2023-02-28T11:24:52;10.18;;;6.65;;
36995;SDS011;22905;50.340;10.776;2023-02-28T11:35:03;16.20;;;6.47;;
36995;SDS011;22905;50.340;10.776;2023-02-28T11:40:14;8.43;;;5.13;;
36995;SDS011;22905;50.340;10.776;2023-02-28T11:45:27;7.70;;;5.30;;
36995;SDS011;22905;50.340;10.776;2023-02-28T11:50:52;9.50;;;4.70;;
36995;SDS011;22905;50.340;10.776;2023-02-28T11:56:03;11.50;;;5.55;;
36995;SDS011;22905;50.340;10.776;2023-02-28T12:06:43;6.53;;;3.95;;
36995;SDS011;22905;50.340;10.776;2023-02-28T12:11:56;7.05;;;4.13;;
36995;SDS011;22905;50.340;10.776;2023-02-28T12:17:46;8.63;;;5.15;;
36995;SDS011;22905;50.340;10.776;2023-02-28T12:22:57;7.35;;;5.10;;
36995;SDS011;22905;50.340;10.776;2023-02-28T12:28:16;11.07;;;4.68;;
36995;SDS011;22905;50.340;10.776;2023-02-28T12:33:21;10.23;;;5.15;;
36995;SDS011;22905;50.340;10.776;2023-02-28T12:43:39;12.30;;;6.47;;
36995;SDS011;22905;50.340;10.776;2023-02-28T12:48:58;12.25;;;5.45;;
36995;SDS011;22905;50.340;10.776;2023-02-28T12:59:29;15.73;;;6.03;;
36995;SDS011;22905;50.340;10.776;2023-02-28T13:04:54;8.75;;;4.57;;
36995;SDS011;22905;50.340;10.776;2023-02-28T13:09:57;11.27;;;4.85;;
36995;SDS011;22905;50.340;10.776;2023-02-28T13:20:16;11.75;;;5.63;;
36995;SDS011;22905;50.340;10.776;2023-02-28T13:25:49;11.02;;;5.43;;
36995;SDS011;22905;50.340;10.776;2023-02-28T13:36:10;9.93;;;5.53;;
36995;SDS011;22905;50.340;10.776;2023-02-28T13:46:28;11.88;;;6.80;;
36995;SDS011;22905;50.340;10.776;2023-02-28T13:56:43;14.38;;;5.82;;
36995;SDS011;22905;50.340;10.776;2023-02-28T14:07:15;11.70;;;6.22;;
36995;SDS011;22905;50.340;10.776;2023-02-28T14:17:57;8.80;;;5.80;;
36995;SDS011;22905;50.340;10.776;2023-02-28T14:23:31;10.48;;;5.22;;
36995;SDS011;22905;50.340;10.776;2023-02-28T14:39:17;8.45;;;5.13;;
36995;SDS011;22905;50.340;10.776;2023-02-28T14:44:23;12.63;;;5.05;;
36995;SDS011;22905;50.340;10.776;2023-02-28T14:54:30;10.88;;;5.53;;
36995;SDS011;22905;50.340;10.776;2023-02-28T14:59:32;11.13;;;5.55;;
36995;SDS011;22905;50.340;10.776;2023-02-28T15:04:34;12.18;;;5.43;;
36995;SDS011;22905;50.340;10.776;2023-02-28T15:09:34;15.00;;;6.68;;
36995;SDS011;22905;50.340;10.776;2023-02-28T15:14:35;9.57;;;5.70;;
36995;SDS011;22905;50.340;10.776;2023-02-28T15:19:39;9.23;;;5.30;;
36995;SDS011;22905;50.340;10.776;2023-02-28T15:24:43;13.63;;;5.78;;
36995;SDS011;22905;50.340;10.776;2023-02-28T15:29:46;13.50;;;5.57;;
36995;SDS011;22905;50.340;10.776;2023-02-28T15:34:50;10.88;;;6.70;;
36995;SDS011;22905;50.340;10.776;2023-02-28T15:39:50;75.63;;;28.70;;
36995;SDS011;22905;50.340;10.776;2023-02-28T15:44:52;16.60;;;9.02;;
36995;SDS011;22905;50.340;10.776;2023-02-28T15:49:53;25.13;;;15.95;;
36995;SDS011;22905;50.340;10.776;2023-02-28T15:54:54;14.93;;;6.72;;
36995;SDS011;22905;50.340;10.776;2023-02-28T15:59:59;12.53;;;6.67;;
36995;SDS011;22905;50.340;10.776;2023-02-28T16:10:11;16.65;;;7.00;;
36995;SDS011;22905;50.340;10.776;2023-02-28T16:15:18;12.25;;;6.30;;
36995;SDS011;22905;50.340;10.776;2023-02-28T16:20:29;13.77;;;6.45;;
36995;SDS011;22905;50.340;10.776;2023-02-28T16:25:34;23.93;;;10.20;;
36995;SDS011;22905;50.340;10.776;2023-02-28T16:30:36;32.75;;;12.45;;
36995;SDS011;22905;50.340;10.776;2023-02-28T16:35:36;33.58;;;10.70;;
36995;SDS011;22905;50.340;10.776;2023-02-28T16:40:36;14.77;;;8.20;;
36995;SDS011;22905;50.340;10.776;2023-02-28T16:45:37;15.20;;;8.05;;
36995;SDS011;22905;50.340;10.776;2023-02-28T16:50:37;23.27;;;10.83;;
36995;SDS011;22905;50.340;10.776;2023-02-28T16:55:38;23.05;;;10.93;;
36995;SDS011;22905;50.340;10.776;2023-02-28T17:00:39;21.83;;;9.77;;
36995;SDS011;22905;50.340;10.776;2023-02-28T17:05:39;19.27;;;9.63;;
36995;SDS011;22905;50.340;10.776;2023-02-28T17:10:39;15.38;;;8.13;;
36995;SDS011;22905;50.340;10.776;2023-02-28T17:15:40;20.58;;;8.05;;
36995;SDS011;22905;50.340;10.776;2023-02-28T17:20:40;23.08;;;9.68;;
36995;SDS011;22905;50.340;10.776;2023-02-28T17:25:42;22.05;;;9.07;;
36995;SDS011;22905;50.340;10.776;2023-02-28T17:30:53;19.00;;;9.70;;
36995;SDS011;22905;50.340;10.776;2023-02-28T17:35:53;29.23;;;12.87;;
36995;SDS011;22905;50.340;10.776;2023-02-28T17:40:53;36.30;;;16.33;;
36995;SDS011;22905;50.340;10.776;2023-02-28T17:45:57;37.45;;;11.95;;
36995;SDS011;22905;50.340;10.776;2023-02-28T17:50:58;46.28;;;16.13;;
36995;SDS011;22905;50.340;10.776;2023-02-28T17:55:58;27.40;;;12.30;;
36995;SDS011;22905;50.340;10.776;2023-02-28T18:00:58;26.17;;;11.43;;
36995;SDS011;22905;50.340;10.776;2023-02-28T18:05:59;27.05;;;10.98;;
36995;SDS011;22905;50.340;10.776;2023-02-28T18:10:59;27.23;;;12.98;;
36995;SDS011;22905;50.340;10.776;2023-02-28T18:16:00;39.37;;;12.97;;
36995;SDS011;22905;50.340;10.776;2023-02-28T18:21:00;26.17;;;11.00;;
36995;SDS011;22905;50.340;10.776;2023-02-28T18:26:00;27.63;;;11.60;;
36995;SDS011;22905;50.340;10.776;2023-02-28T18:31:07;25.83;;;12.23;;
36995;SDS011;22905;50.340;10.776;2023-02-28T18:36:08;22.88;;;11.52;;
36995;SDS011;22905;50.340;10.776;2023-02-28T18:41:09;25.10;;;11.43;;
36995;SDS011;22905;50.340;10.776;2023-02-28T18:46:10;37.20;;;14.30;;
36995;SDS011;22905;50.340;10.776;2023-02-28T18:51:13;28.85;;;11.98;;
36995;SDS011;22905;50.340;10.776;2023-02-28T18:56:15;22.42;;;11.88;;
36995;SDS011;22905;50.340;10.776;2023-02-28T19:06:18;24.45;;;12.85;;
36995;SDS011;22905;50.340;10.776;2023-02-28T19:11:19;70.95;;;22.50;;
36995;SDS011;22905;50.340;10.776;2023-02-28T19:16:19;98.35;;;36.83;;
36995;SDS011;22905;50.340;10.776;2023-02-28T19:21:21;78.22;;;27.63;;
36995;SDS011;22905;50.340;10.776;2023-02-28T19:26:22;48.38;;;19.80;;
36995;SDS011;22905;50.340;10.776;2023-02-28T19:31:24;39.23;;;16.27;;
36995;SDS011;22905;50.340;10.776;2023-02-28T19:36:24;33.47;;;12.93;;
36995;SDS011;22905;50.340;10.776;2023-02-28T19:41:25;28.30;;;12.80;;
36995;SDS011;22905;50.340;10.776;2023-02-28T19:46:26;23.08;;;12.23;;
36995;SDS011;22905;50.340;10.776;2023-02-28T19:51:27;29.38;;;11.60;;
36995;SDS011;22905;50.340;10.776;2023-02-28T19:56:28;25.42;;;12.40;;
36995;SDS011;22905;50.340;10.776;2023-02-28T20:01:28;28.35;;;13.10;;
36995;SDS011;22905;50.340;10.776;2023-02-28T20:06:30;31.48;;;12.80;;
36995;SDS011;22905;50.340;10.776;2023-02-28T20:11:30;30.33;;;13.00;;
36995;SDS011;22905;50.340;10.776;2023-02-28T20:16:31;44.25;;;16.92;;
36995;SDS011;22905;50.340;10.776;2023-02-28T20:21:31;40.73;;;15.93;;
36995;SDS011;22905;50.340;10.776;2023-02-28T20:26:31;41.50;;;16.75;;
36995;SDS011;22905;50.340;10.776;2023-02-28T20:31:32;36.22;;;15.73;;
36995;SDS011;22905;50.340;10.776;2023-02-28T20:36:33;33.00;;;15.10;;
36995;SDS011;22905;50.340;10.776;2023-02-28T20:41:34;33.22;;;14.40;;
36995;SDS011;22905;50.340;10.776;2023-02-28T20:46:34;41.72;;;17.75;;
36995;SDS011;22905;50.340;10.776;2023-02-28T20:51:34;50.67;;;19.95;;
36995;SDS011;22905;50.340;10.776;2023-02-28T20:56:38;66.03;;;26.00;;
36995;SDS011;22905;50.340;10.776;2023-02-28T21:01:39;45.15;;;19.95;;
36995;SDS011;22905;50.340;10.776;2023-02-28T21:06:41;34.00;;;14.55;;
36995;SDS011;22905;50.340;10.776;2023-02-28T21:11:43;33.10;;;14.10;;
36995;SDS011;22905;50.340;10.776;2023-02-28T21:16:43;27.10;;;12.57;;
36995;SDS011;22905;50.340;10.776;2023-02-28T21:21:45;29.55;;;12.18;;
36995;SDS011;22905;50.340;10.776;2023-02-28T21:26:47;32.88;;;13.07;;
36995;SDS011;22905;50.340;10.776;2023-02-28T21:31:48;23.88;;;11.38;;
36995;SDS011;22905;50.340;10.776;2023-02-28T21:36:50;24.75;;;11.80;;
36995;SDS011;22905;50.340;10.776;2023-02-28T21:41:50;31.27;;;13.37;;
36995;SDS011;22905;50.340;10.776;2023-02-28T21:46:51;38.00;;;14.23;;
36995;SDS011;22905;50.340;10.776;2023-02-28T21:51:55;26.40;;;11.35;;
36995;SDS011;22905;50.340;10.776;2023-02-28T21:56:56;29.90;;;13.88;;
36995;SDS011;22905;50.340;10.776;2023-02-28T22:01:56;34.83;;;13.80;;
36995;SDS011;22905;50.340;10.776;2023-02-28T22:06:57;35.77;;;14.00;;
36995;SDS011;22905;50.340;10.776;2023-02-28T22:11:57;31.67;;;13.07;;
36995;SDS011;22905;50.340;10.776;2023-02-28T22:16:57;28.90;;;12.47;;
36995;SDS011;22905;50.340;10.776;2023-02-28T22:21:58;38.35;;;15.25;;
36995;SDS011;22905;50.340;10.776;2023-02-28T22:26:58;28.73;;;13.20;;
36995;SDS011;22905;50.340;10.776;2023-02-28T22:31:58;29.63;;;12.90;;
36995;SDS011;22905;50.340;10.776;2023-02-28T22:36:59;28.27;;;12.27;;
36995;SDS011;22905;50.340;10.776;2023-02-28T22:41:59;27.63;;;12.30;;
36995;SDS011;22905;50.340;10.776;2023-02-28T22:46:59;30.15;;;11.82;;
36995;SDS011;22905;50.340;10.776;2023-02-28T22:52:00;28.20;;;11.93;;
36995;SDS011;22905;50.340;10.776;2023-02-28T22:57:00;27.20;;;11.32;;
36995;SDS011;22905;50.340;10.776;2023-02-28T23:02:00;27.20;;;12.05;;
36995;SDS011;22905;50.340;10.776;2023-02-28T23:07:00;24.80;;;10.83;;
36995;SDS011;22905;50.340;10.776;2023-02-28T23:12:01;26.98;;;11.93;;
36995;SDS011;22905;50.340;10.776;2023-02-28T23:17:01;25.63;;;12.05;;
36995;SDS011;22905;50.340;10.776;2023-02-28T23:22:02;28.50;;;12.35;;
36995;SDS011;22905;50.340;10.776;2023-02-28T23:27:04;27.88;;;11.52;;
36995;SDS011;22905;50.340;10.776;2023-02-28T23:32:04;25.85;;;11.90;;
36995;SDS011;22905;50.340;10.776;2023-02-28T23:37:05;26.45;;;12.38;;
36995;SDS011;22905;50.340;10.776;2023-02-28T23:42:05;27.57;;;11.20;;
36995;SDS011;22905;50.340;10.776;2023-02-28T23:47:05;29.08;;;11.20;;
36995;SDS011;22905;50.340;10.776;2023-02-28T23:52:06;27.63;;;12.23;;
36995;SDS011;22905;50.340;10.776;2023-02-28T23:57:06;24.83;;;10.57;;
